Time;durP1;ratioP1;P1;durP2;ratioP2;P2;SDS_P1;SDS_P2;PMS_P1;PMS_P2;Temp;Humidity;BMP_temperature;BMP_pressure;BME280_temperature;BME280_humidity;BME280_pressure;Samples;Min_cycle;Max_cycle;Signal;HPM_P1;HPM_P2
2021/04/06 00:00:43;;;;;;;2.07;1.23;;;;;;;-0.61;87.92;151217.00;5060681;28;20492;-83
2021/04/06 00:03:20;;;;;;;2.60;1.47;;;;;;;-0.65;88.39;151205.47;5075307;28;20461;-83
2021/04/06 00:05:58;;;;;;;1.50;1.13;;;;;;;-0.68;90.20;151197.78;5076071;28;20536;-83
2021/04/06 00:08:35;;;;;;;1.60;0.93;;;;;;;-0.76;89.38;151178.53;5094375;28;21183;-83
2021/04/06 00:11:11;;;;;;;1.67;1.13;;;;;;;-0.76;91.06;151177.25;5093415;28;20795;-83
2021/04/06 00:13:47;;;;;;;2.63;1.47;;;;;;;-0.79;90.10;151169.56;5076308;28;20906;-83
2021/04/06 00:16:23;;;;;;;2.10;1.17;;;;;;;-0.81;89.71;151164.44;5075588;28;20785;-83
2021/04/06 00:18:58;;;;;;;2.27;1.20;;;;;;;-0.85;91.01;151154.19;5089147;28;20433;-83
2021/04/06 00:21:34;;;;;;;6.23;1.60;;;;;;;-0.86;91.21;151151.63;5077840;28;20544;-83
2021/04/06 00:24:10;;;;;;;2.57;1.57;;;;;;;-0.94;89.70;151132.38;5075838;28;20465;-83
2021/04/06 00:26:48;;;;;;;2.17;1.13;;;;;;;-0.93;90.01;151134.97;5089727;28;20446;-83
2021/04/06 00:29:26;;;;;;;1.63;1.23;;;;;;;-0.99;89.90;151119.56;5072793;28;20496;-82
2021/04/06 00:32:02;;;;;;;1.63;1.20;;;;;;;-1.00;90.65;151115.69;5055819;28;20449;-82
2021/04/06 00:34:38;;;;;;;2.37;1.27;;;;;;;-1.03;90.64;151109.28;5065694;28;20924;-82
2021/04/06 00:37:16;;;;;;;2.40;1.57;;;;;;;-0.97;91.58;151123.41;5075277;28;20460;-82
2021/04/06 00:39:59;;;;;;;1.63;1.53;;;;;;;-1.00;91.73;151115.69;5076061;28;20429;-82
2021/04/06 00:42:35;;;;;;;2.70;1.60;;;;;;;-1.05;91.31;151102.88;5075948;28;20445;-83
2021/04/06 00:45:14;;;;;;;2.07;1.40;;;;;;;-1.03;91.95;151108.06;5077362;28;20452;-82
2021/04/06 00:47:58;;;;;;;2.53;1.40;;;;;;;-1.06;91.21;151101.59;5075989;28;20449;-83
2021/04/06 00:50:35;;;;;;;1.57;1.20;;;;;;;-1.08;92.60;151096.47;5072393;28;20793;-82
2021/04/06 00:53:14;;;;;;;2.33;1.40;;;;;;;-1.11;91.30;151087.53;5072589;28;20490;-82
2021/04/06 00:55:51;;;;;;;2.83;1.53;;;;;;;-1.15;91.02;151077.25;5072850;28;20785;-82
2021/04/06 00:58:26;;;;;;;2.00;1.30;;;;;;;-1.16;91.05;151074.66;5073727;28;20431;-81
2021/04/06 01:01:03;;;;;;;2.70;1.80;;;;;;;-1.18;92.70;151069.56;5085313;28;20870;-82
2021/04/06 01:03:40;;;;;;;1.60;1.40;;;;;;;-1.23;91.76;151059.34;5075753;28;20560;-82
2021/04/06 01:06:16;;;;;;;2.80;2.10;;;;;;;-1.18;91.13;151070.84;5075870;28;20445;-82
2021/04/06 01:08:52;;;;;;;1.97;1.87;;;;;;;-1.18;92.19;151069.56;5092237;28;20931;-82
2021/04/06 01:11:29;;;;;;;2.03;1.83;;;;;;;-1.19;93.98;151067.03;5076029;28;20460;-82
2021/04/06 01:14:04;;;;;;;1.97;1.60;;;;;;;-1.20;91.38;151065.72;5077793;28;20446;-82
2021/04/06 01:16:40;;;;;;;2.20;1.40;;;;;;;-1.19;91.64;151067.03;5079764;28;20502;-82
2021/04/06 01:19:16;;;;;;;3.00;1.60;;;;;;;-1.19;91.07;151067.03;5097003;28;20429;-82
2021/04/06 01:21:51;;;;;;;2.77;1.40;;;;;;;-1.11;92.68;151087.53;5079245;28;20460;-82
2021/04/06 01:24:27;;;;;;;3.60;2.20;;;;;;;-1.18;90.67;151069.56;5097346;28;20806;-82
2021/04/06 01:27:05;;;;;;;4.00;1.83;;;;;;;-1.24;92.99;151056.75;5079568;28;20545;-82
2021/04/06 01:29:40;;;;;;;2.53;1.90;;;;;;;-1.26;92.49;151051.63;5096316;28;20437;-82
2021/04/06 01:32:18;;;;;;;3.57;1.80;;;;;;;-1.26;91.41;151050.34;5097050;28;20417;-82
2021/04/06 01:34:54;;;;;;;1.67;1.40;;;;;;;-1.28;91.76;151046.50;5096085;28;20833;-82
2021/04/06 01:37:28;;;;;;;3.90;2.00;;;;;;;-1.22;92.91;151061.88;5096412;28;20516;-81
2021/04/06 01:40:06;;;;;;;3.67;2.20;;;;;;;-1.23;93.12;151058.03;5084605;28;20434;-82
2021/04/06 01:42:42;;;;;;;2.80;2.00;;;;;;;-1.28;92.29;151046.50;5075394;28;20446;-82
2021/04/06 01:45:18;;;;;;;3.60;2.20;;;;;;;-1.35;90.84;151027.28;5071428;28;20449;-82
2021/04/06 01:47:53;;;;;;;1.93;1.57;;;;;;;-1.35;90.60;151028.53;5079095;28;20404;-82
2021/04/06 01:50:28;;;;;;;3.17;1.93;;;;;;;-1.35;92.00;151028.53;5078852;28;20452;-82
2021/04/06 01:53:04;;;;;;;6.43;2.23;;;;;;;-1.38;90.90;151020.84;5078070;28;20989;-82
2021/04/06 01:55:41;;;;;;;3.00;1.83;;;;;;;-1.41;91.14;151011.91;5082514;28;20473;-83
2021/04/06 01:58:17;;;;;;;3.20;1.90;;;;;;;-1.42;92.32;151010.63;5085146;28;20445;-82
2021/04/06 02:01:07;;;;;;;4.50;1.87;;;;;;;-1.42;92.17;151010.63;5079495;28;20437;-82
2021/04/06 02:03:46;;;;;;;3.97;2.37;;;;;;;-1.35;91.97;151028.53;5097023;28;20428;-81
2021/04/06 02:06:23;;;;;;;4.10;2.23;;;;;;;-1.41;92.18;151011.91;5078895;28;20449;-82
2021/04/06 02:08:59;;;;;;;3.23;1.40;;;;;;;-1.42;91.36;151010.63;5096562;28;21078;-82
2021/04/06 02:11:37;;;;;;;2.80;2.13;;;;;;;-1.44;90.43;151005.50;5077860;28;20419;-82
2021/04/06 02:14:14;;;;;;;2.60;2.30;;;;;;;-1.42;92.65;151009.31;5090565;28;20860;-81
2021/04/06 02:16:51;;;;;;;3.30;1.97;;;;;;;-1.49;91.36;150992.69;5078063;28;20444;-82
2021/04/06 02:19:28;;;;;;;3.20;1.90;;;;;;;-1.49;92.20;150992.69;5096112;28;20506;-82
2021/04/06 02:22:04;;;;;;;7.03;2.57;;;;;;;-1.50;91.76;150990.09;5096829;28;20433;-81
2021/04/06 02:24:41;;;;;;;4.47;2.27;;;;;;;-1.48;90.48;150993.94;5078219;28;20465;-82
2021/04/06 02:27:18;;;;;;;3.50;2.43;;;;;;;-1.52;90.62;150983.72;5095876;28;20477;-82
2021/04/06 02:29:56;;;;;;;3.13;2.27;;;;;;;-1.43;90.43;151008.03;5097697;28;20487;-82
2021/04/06 02:32:33;;;;;;;3.93;2.50;;;;;;;-1.47;91.44;150997.81;5082280;28;20437;-82
2021/04/06 02:35:10;;;;;;;2.70;2.30;;;;;;;-1.53;90.99;150982.41;5078320;28;20855;-82
2021/04/06 02:37:46;;;;;;;4.27;2.40;;;;;;;-1.54;91.95;150979.88;5077612;28;20445;-82
2021/04/06 02:40:22;;;;;;;5.17;2.40;;;;;;;-1.57;92.00;150972.19;5077403;28;20424;-82
2021/04/06 02:42:58;;;;;;;2.50;2.20;;;;;;;-1.57;89.87;150970.91;5093987;28;20526;-82
2021/04/06 02:45:36;;;;;;;4.77;2.50;;;;;;;-1.57;91.42;150970.91;5096174;28;20448;-82
2021/04/06 02:48:12;;;;;;;5.43;2.60;;;;;;;-1.63;90.98;150956.78;5077731;28;20424;-82
2021/04/06 02:50:48;;;;;;;2.50;2.20;;;;;;;-1.63;90.33;150956.78;5096019;28;20457;-82
2021/04/06 02:53:23;;;;;;;4.50;2.40;;;;;;;-1.72;90.26;150932.47;5057440;28;20557;-82
2021/04/06 02:55:58;;;;;;;3.00;2.43;;;;;;;-1.72;92.38;150933.72;5088219;28;20524;-82
2021/04/06 02:58:39;;;;;;;2.70;1.93;;;;;;;-1.69;91.37;150940.13;5095317;28;20408;-81
2021/04/06 03:01:16;;;;;;;4.00;1.87;;;;;;;-1.72;91.68;150933.72;5077436;28;20420;-82
2021/04/06 03:03:50;;;;;;;4.67;2.80;;;;;;;-1.67;92.56;150946.56;5076985;28;20467;-82
2021/04/06 03:06:33;;;;;;;2.87;2.00;;;;;;;-1.66;91.12;150947.81;5077061;28;20455;-82
2021/04/06 03:09:11;;;;;;;3.53;1.87;;;;;;;-1.59;93.90;150967.03;5075819;28;20416;-82
2021/04/06 03:11:47;;;;;;;3.73;2.53;;;;;;;-1.60;91.61;150963.19;5077131;28;20417;-82
2021/04/06 03:14:24;;;;;;;2.97;2.40;;;;;;;-1.53;93.15;150981.13;5074535;28;20876;-82
2021/04/06 03:16:59;;;;;;;3.50;2.23;;;;;;;-1.55;91.55;150977.28;5095910;28;20434;-82
2021/04/06 03:19:34;;;;;;;3.43;2.70;;;;;;;-1.52;91.99;150983.72;5077070;28;20442;-82
2021/04/06 03:22:10;;;;;;;2.80;2.50;;;;;;;-1.47;92.44;150996.50;5076999;28;20478;-82
2021/04/06 03:24:46;;;;;;;3.60;2.00;;;;;;;-1.55;90.87;150977.28;5076719;28;20465;-82
2021/04/06 03:27:28;;;;;;;3.50;2.30;;;;;;;-1.54;91.97;150978.59;5093842;28;20576;-82
2021/04/06 03:30:06;;;;;;;2.20;2.00;;;;;;;-1.49;91.06;150992.69;5085620;28;20441;-82
2021/04/06 03:32:42;;;;;;;2.50;2.20;;;;;;;-1.52;92.38;150985.00;5093255;28;20424;-82
2021/04/06 03:35:23;;;;;;;3.87;2.23;;;;;;;-1.42;93.37;151009.31;5080688;28;20455;-82
2021/04/06 03:37:59;;;;;;;5.13;2.63;;;;;;;-1.44;92.54;151004.22;5081125;28;20528;-82
2021/04/06 03:40:35;;;;;;;3.33;2.60;;;;;;;-1.42;91.52;151010.63;5093879;28;20413;-82
2021/04/06 03:43:12;;;;;;;3.03;2.53;;;;;;;-1.42;90.00;151010.63;5093404;28;20995;-82
2021/04/06 03:45:55;;;;;;;4.20;2.63;;;;;;;-1.34;92.01;151031.13;5061616;28;20863;-82
2021/04/06 03:48:32;;;;;;;4.60;2.27;;;;;;;-1.29;90.98;151042.66;5076324;28;20533;-82
2021/04/06 03:51:26;;;;;;;4.53;2.87;;;;;;;-1.34;90.21;151029.84;5094459;28;20455;-82
2021/04/06 03:54:01;;;;;;;3.17;2.50;;;;;;;-1.32;91.80;151036.22;5093556;28;20943;-82
2021/04/06 03:56:36;;;;;;;4.07;2.50;;;;;;;-1.39;91.79;151017.03;5077821;28;20445;-82
2021/04/06 03:59:11;;;;;;;4.10;2.63;;;;;;;-1.40;90.61;151015.72;5094570;28;20465;-82
2021/04/06 04:01:47;;;;;;;3.90;2.53;;;;;;;-1.40;91.65;151015.72;5076891;28;20445;-81
2021/04/06 04:04:22;;;;;;;3.00;2.70;;;;;;;-1.42;91.93;151010.63;5094186;28;20439;-83
2021/04/06 04:07:01;;;;;;;3.07;2.13;;;;;;;-1.42;92.61;151010.63;5074106;28;20447;-82
2021/04/06 04:09:36;;;;;;;3.20;2.57;;;;;;;-1.39;90.81;151018.31;5093695;28;20500;-82
2021/04/06 04:12:11;;;;;;;4.60;3.27;;;;;;;-1.42;91.30;151009.31;5073994;28;20404;-84
2021/04/06 04:14:46;;;;;;;2.47;2.27;;;;;;;-1.38;92.81;151020.84;5092932;28;20429;-82
2021/04/06 04:17:22;;;;;;;3.90;2.93;;;;;;;-1.45;92.52;151002.91;5075796;28;20531;-82
2021/04/06 04:19:57;;;;;;;6.53;3.40;;;;;;;-1.43;91.70;151006.78;5055987;28;20441;-82
2021/04/06 04:22:32;;;;;;;4.20;3.07;;;;;;;-1.47;93.07;150997.81;5073610;28;20400;-82
2021/04/06 04:25:20;;;;;;;9.50;3.23;;;;;;;-1.42;92.52;151009.31;5085999;28;20851;-81
2021/04/06 04:27:55;;;;;;;4.50;2.83;;;;;;;-1.41;92.31;151013.19;5075939;28;21040;-82
2021/04/06 04:30:42;;;;;;;3.33;2.67;;;;;;;-1.39;93.18;151017.03;5072471;28;20425;-82
2021/04/06 04:33:18;;;;;;;3.77;2.30;;;;;;;-1.35;92.16;151028.53;5065556;28;20465;-82
2021/04/06 04:35:53;;;;;;;5.00;3.20;;;;;;;-1.36;93.11;151026.00;5089803;28;20437;-82
2021/04/06 04:38:29;;;;;;;3.70;2.60;;;;;;;-1.37;91.53;151023.44;5110704;28;20947;-82
2021/04/06 04:41:04;;;;;;;5.40;3.10;;;;;;;-1.31;91.72;151038.81;5096226;28;20419;-82
2021/04/06 04:43:39;;;;;;;4.23;2.90;;;;;;;-1.32;92.59;151036.22;5114413;28;20448;-82
2021/04/06 04:46:15;;;;;;;3.23;2.90;;;;;;;-1.32;92.60;151034.94;5096132;28;20535;-82
2021/04/06 04:48:50;;;;;;;4.73;2.93;;;;;;;-1.35;93.17;151028.53;5095197;28;20415;-83
2021/04/06 04:51:26;;;;;;;3.33;2.80;;;;;;;-1.34;93.42;151031.13;5114608;28;20437;-82
2021/04/06 04:54:01;;;;;;;3.83;2.67;;;;;;;-1.37;92.46;151023.44;5108521;28;20523;-82
2021/04/06 04:56:36;;;;;;;3.97;2.53;;;;;;;-1.36;92.71;151026.00;5091455;28;20456;-82
2021/04/06 04:59:11;;;;;;;3.57;2.73;;;;;;;-1.30;93.39;151041.34;5091679;28;20882;-83
2021/04/06 05:01:49;;;;;;;4.00;3.60;;;;;;;-1.28;93.16;151046.50;5056740;28;20525;-82
2021/04/06 05:04:25;;;;;;;6.13;2.90;;;;;;;-1.24;92.08;151055.44;5075011;28;20463;-82
2021/04/06 05:07:01;;;;;;;5.27;2.43;;;;;;;-1.29;94.39;151042.66;5070969;28;20458;-83
2021/04/06 05:09:36;;;;;;;5.43;3.60;;;;;;;-1.29;91.66;151043.94;5088683;28;20445;-82
2021/04/06 05:12:11;;;;;;;5.40;2.63;;;;;;;-1.27;92.44;151049.06;5087277;28;20846;-83
2021/04/06 05:14:47;;;;;;;4.60;2.73;;;;;;;-1.27;91.72;151047.75;5090910;28;20445;-82
2021/04/06 05:17:22;;;;;;;6.67;3.70;;;;;;;-1.22;92.77;151060.63;5091396;28;20433;-82
2021/04/06 05:19:58;;;;;;;4.17;3.07;;;;;;;-1.17;91.49;151073.44;5085492;28;20441;-82
2021/04/06 05:22:33;;;;;;;3.20;2.90;;;;;;;-1.16;92.13;151074.66;5092627;28;20445;-82
2021/04/06 05:25:09;;;;;;;4.50;3.20;;;;;;;-1.13;92.55;151082.38;5067976;28;20485;-82
2021/04/06 05:27:44;;;;;;;5.00;3.20;;;;;;;-1.12;92.98;151084.97;5060800;28;20510;-82
2021/04/06 05:30:20;;;;;;;25.43;4.60;;;;;;;-1.13;91.90;151083.66;5072819;28;21094;-83
2021/04/06 05:32:55;;;;;;;4.70;3.20;;;;;;;-1.10;92.26;151091.38;5093041;28;20929;-83
2021/04/06 05:35:31;;;;;;;4.77;2.80;;;;;;;-1.09;92.48;151093.94;5072477;28;20449;-82
2021/04/06 05:38:06;;;;;;;6.43;3.00;;;;;;;-1.08;92.95;151095.19;5077014;28;20441;-83
2021/04/06 05:40:41;;;;;;;3.40;2.60;;;;;;;-1.09;92.02;151093.94;5090961;28;20453;-82
2021/04/06 05:43:16;;;;;;;4.30;2.57;;;;;;;-1.08;91.46;151096.47;5073307;28;20469;-83
2021/04/06 05:45:53;;;;;;;7.30;3.20;;;;;;;-1.08;92.10;151095.19;5071313;28;20446;-83
2021/04/06 05:48:31;;;;;;;6.67;3.10;;;;;;;-1.05;93.19;151104.19;5068882;28;20442;-82
2021/04/06 05:51:07;;;;;;;5.93;3.57;;;;;;;-1.08;92.80;151095.19;5071920;28;20445;-83
2021/04/06 05:53:43;;;;;;;4.07;2.70;;;;;;;-1.04;93.10;151105.47;5056245;28;20521;-83
2021/04/06 05:56:18;;;;;;;3.90;2.70;;;;;;;-1.10;91.99;151090.06;5054346;28;20498;-83
2021/04/06 05:58:58;;;;;;;4.60;2.30;;;;;;;-0.97;92.75;151123.41;5076900;28;20485;-83
2021/04/06 06:01:38;;;;;;;6.00;3.00;;;;;;;-0.97;93.46;151124.69;5078002;28;20449;-83
2021/04/06 06:04:15;;;;;;;6.10;2.90;;;;;;;-0.99;93.04;151118.28;5072490;28;20465;-83
2021/04/06 06:06:52;;;;;;;5.90;3.20;;;;;;;-0.90;93.80;151141.38;5068117;28;20486;-83
2021/04/06 06:09:29;;;;;;;6.67;3.43;;;;;;;-0.90;93.54;151142.63;5087017;28;20448;-83
2021/04/06 06:12:05;;;;;;;4.80;3.63;;;;;;;-0.87;93.63;151149.03;5089680;28;20547;-83
2021/04/06 06:14:42;;;;;;;5.93;3.20;;;;;;;-0.85;92.75;151154.19;5067373;28;20438;-83
2021/04/06 06:17:18;;;;;;;4.77;3.17;;;;;;;-0.81;93.14;151165.72;5093351;28;20472;-83
2021/04/06 06:19:54;;;;;;;3.77;3.00;;;;;;;-0.79;92.23;151169.56;5091780;28;20445;-84
2021/04/06 06:22:31;;;;;;;5.10;2.90;;;;;;;-0.82;92.61;151161.91;5094622;28;20441;-83
2021/04/06 06:25:07;;;;;;;4.70;2.70;;;;;;;-0.73;91.88;151184.94;5091959;28;20480;-83
2021/04/06 06:27:44;;;;;;;4.00;2.80;;;;;;;-0.66;90.91;151202.88;5088346;28;20433;-83
2021/04/06 06:30:23;;;;;;;3.30;3.00;;;;;;;-0.62;91.38;151213.19;5093701;28;20449;-83
2021/04/06 06:33:18;;;;;;;3.55;3.05;;;;;;;-0.56;92.21;151228.59;5094634;28;20441;-80
2021/04/06 06:35:55;;;;;;;4.10;3.50;;;;;;;-0.56;91.62;151228.59;5075509;28;20513;-82
2021/04/06 06:38:35;;;;;;;3.67;3.30;;;;;;;-0.56;92.02;151228.59;5107034;28;20440;-81
2021/04/06 06:41:12;;;;;;;4.60;3.10;;;;;;;-0.52;92.54;151238.81;5060982;28;20942;-81
2021/04/06 06:43:49;;;;;;;4.67;3.27;;;;;;;-0.45;92.63;151256.75;5087053;28;20890;-82
2021/04/06 06:46:30;;;;;;;6.10;3.07;;;;;;;-0.40;91.91;151269.63;5070790;28;20449;-81
2021/04/06 06:49:08;;;;;;;5.33;3.27;;;;;;;-0.40;92.38;151269.63;5073619;28;20491;-82
2021/04/06 06:51:43;;;;;;;5.77;3.77;;;;;;;-0.39;91.77;151272.16;5073280;28;20441;-81
2021/04/06 06:54:34;;;;;;;5.27;3.33;;;;;;;-0.38;91.79;151274.75;5076259;28;20521;-81
2021/04/06 06:57:13;;;;;;;3.63;2.50;;;;;;;-0.31;92.05;151291.41;5091607;28;20438;-82
2021/04/06 06:59:48;;;;;;;6.50;2.73;;;;;;;-0.34;91.74;151284.97;5066552;28;20439;-82
2021/04/06 07:02:24;;;;;;;4.17;3.50;;;;;;;-0.22;92.24;151315.81;5070749;28;20454;-81
2021/04/06 07:05:11;;;;;;;5.53;2.23;;;;;;;-0.12;92.42;151340.16;5053902;28;20963;-82
2021/04/06 07:07:57;;;;;;;4.63;3.23;;;;;;;-0.08;92.56;151351.69;5082256;28;20461;-82
2021/04/06 07:10:35;;;;;;;3.03;2.67;;;;;;;-0.07;90.61;151354.28;5071989;28;20541;-82
2021/04/06 07:13:16;;;;;;;9.93;3.80;;;;;;;-0.01;91.52;151368.41;5064053;28;20437;-83
2021/04/06 07:15:51;;;;;;;6.70;3.90;;;;;;;-0.01;90.19;151369.69;5090271;28;20461;-83
2021/04/06 07:18:27;;;;;;;7.30;3.20;;;;;;;0.05;90.93;151383.81;5061650;28;20444;-82
2021/04/06 07:21:04;;;;;;;5.73;3.90;;;;;;;0.11;93.13;151397.94;5077231;28;20445;-82
2021/04/06 07:23:46;;;;;;;4.47;3.03;;;;;;;0.18;90.82;151417.19;5094347;28;20457;-82
2021/04/06 07:26:22;;;;;;;5.20;3.00;;;;;;;0.31;91.46;151449.25;5081349;28;20454;-82
2021/04/06 07:28:57;;;;;;;8.13;3.10;;;;;;;0.44;90.27;151483.91;5073491;28;21100;-82
2021/04/06 07:31:33;;;;;;;4.80;2.73;;;;;;;0.51;89.75;151500.56;5085970;28;20441;-82
2021/04/06 07:34:09;;;;;;;2.53;2.33;;;;;;;0.56;90.20;151513.41;5059397;28;20437;-83
2021/04/06 07:36:45;;;;;;;5.37;2.80;;;;;;;0.65;88.87;151535.25;5088999;28;20442;-83
2021/04/06 07:39:23;;;;;;;3.83;2.93;;;;;;;0.88;91.21;151595.59;5070458;28;20914;-83
2021/04/06 07:42:00;;;;;;;5.37;3.30;;;;;;;1.42;89.54;151731.75;5072047;28;20560;-83
2021/04/06 07:44:36;;;;;;;4.30;3.10;;;;;;;1.98;88.97;151875.72;5088350;28;20458;-84
2021/04/06 07:47:11;;;;;;;4.33;2.87;;;;;;;2.09;86.87;151903.94;5060271;28;20441;-85
2021/04/06 07:49:47;;;;;;;6.47;4.13;;;;;;;2.08;85.33;151901.41;5087178;28;20948;-84
2021/04/06 07:52:22;;;;;;;6.30;3.90;;;;;;;2.04;83.54;151891.09;5087827;28;20445;-84
2021/04/06 07:54:57;;;;;;;4.10;2.73;;;;;;;2.09;85.41;151902.72;5081759;28;20536;-84
2021/04/06 07:57:44;;;;;;;5.50;3.03;;;;;;;2.11;85.13;151907.84;5060636;28;20437;-85
2021/04/06 08:00:50;;;;;;;5.23;3.00;;;;;;;2.01;85.72;151883.44;5101684;28;20469;-85
2021/04/06 08:04:02;;;;;;;6.37;2.67;;;;;;;1.97;85.80;151873.13;5107407;28;20454;-85
2021/04/06 08:06:44;;;;;;;4.20;2.70;;;;;;;1.92;85.50;151860.28;5085954;28;20472;-85
2021/04/06 08:09:43;;;;;;;3.83;2.90;;;;;;;1.93;83.95;151862.88;5083501;28;20434;-83
2021/04/06 08:12:19;;;;;;;5.13;3.03;;;;;;;1.87;84.38;151847.41;5094143;28;20471;-85
2021/04/06 08:14:59;;;;;;;7.50;2.67;;;;;;;1.90;85.55;151853.84;5076689;28;20457;-85
2021/04/06 08:17:47;;;;;;;3.10;2.65;;;;;;;1.91;84.31;151857.69;5076868;28;20469;-85
2021/04/06 08:20:27;;;;;;;6.20;3.40;;;;;;;1.82;83.73;151835.88;5065464;28;20956;-85
2021/04/06 08:23:04;;;;;;;5.00;2.90;;;;;;;1.78;85.41;151825.56;5058244;28;20446;-85
2021/04/06 08:25:52;;;;;;;4.67;3.10;;;;;;;1.82;84.93;151834.56;5075902;28;20442;-85
2021/04/06 08:28:37;;;;;;;5.60;3.47;;;;;;;1.73;84.81;151811.41;5079313;28;20450;-84
2021/04/06 08:31:38;;;;;;;4.93;3.00;;;;;;;1.71;84.54;151806.28;5070089;28;20457;-84
2021/04/06 08:34:44;;;;;;;5.57;2.33;;;;;;;1.77;85.16;151821.72;5076161;28;20433;-84
2021/04/06 08:37:21;;;;;;;4.17;2.70;;;;;;;1.79;83.87;151826.84;5082445;28;20444;-85
2021/04/06 08:39:56;;;;;;;4.53;2.83;;;;;;;1.71;83.89;151806.28;5082447;28;20445;-84
2021/04/06 08:42:31;;;;;;;3.60;2.73;;;;;;;1.64;85.88;151789.56;5076453;28;20456;-84
2021/04/06 08:45:08;;;;;;;3.57;3.00;;;;;;;1.57;85.80;151770.28;5094638;28;20469;-85
2021/04/06 08:47:46;;;;;;;4.13;2.97;;;;;;;1.60;85.00;151778.00;5095239;28;20498;-84
2021/04/06 08:50:33;;;;;;;3.53;2.37;;;;;;;1.64;86.13;151789.56;5059772;28;20434;-85
2021/04/06 08:53:08;;;;;;;4.13;2.70;;;;;;;1.67;85.69;151795.97;5059615;28;20449;-85
2021/04/06 08:55:44;;;;;;;5.73;3.03;;;;;;;1.60;87.00;151778.00;5076756;28;20470;-84
2021/04/06 08:58:20;;;;;;;3.33;2.47;;;;;;;1.57;87.75;151770.28;5092663;28;20531;-84
2021/04/06 09:01:01;;;;;;;4.30;2.60;;;;;;;1.46;89.35;151743.31;5074621;28;20425;-84
2021/04/06 09:03:38;;;;;;;4.63;3.20;;;;;;;1.43;90.12;151734.34;5077323;28;20467;-84
2021/04/06 09:06:13;;;;;;;7.07;2.80;;;;;;;1.43;89.81;151734.34;5092243;28;20522;-84
2021/04/06 09:08:50;;;;;;;3.57;2.73;;;;;;;1.40;91.39;151727.94;5091902;28;20469;-83
2021/04/06 09:11:25;;;;;;;6.35;2.03;;;;;;;1.45;90.05;151739.47;5077595;28;20837;-83
2021/04/06 09:14:01;;;;;;;5.13;2.77;;;;;;;1.53;89.05;151760.03;5090549;28;20438;-83
2021/04/06 09:16:36;;;;;;;7.53;3.00;;;;;;;1.60;87.54;151778.00;5063996;28;20442;-84
2021/04/06 09:19:14;;;;;;;3.47;2.50;;;;;;;1.58;88.38;151772.88;5085281;28;20474;-84
2021/04/06 09:21:51;;;;;;;2.57;2.20;;;;;;;1.62;87.87;151783.13;5057484;28;20449;-83
2021/04/06 09:24:27;;;;;;;3.07;1.87;;;;;;;1.63;87.64;151785.72;5070434;28;20465;-83
2021/04/06 09:27:03;;;;;;;3.10;2.60;;;;;;;1.76;86.59;151819.13;5075557;28;20494;-83
2021/04/06 09:29:54;;;;;;;2.47;2.27;;;;;;;1.91;86.16;151856.44;5090253;28;20430;-85
2021/04/06 09:32:29;;;;;;;7.20;2.67;;;;;;;2.03;85.75;151887.25;5073065;28;20468;-83
2021/04/06 09:35:07;;;;;;;2.83;2.00;;;;;;;2.08;86.84;151901.41;5075544;28;20437;-83
2021/04/06 09:37:43;;;;;;;5.47;2.10;;;;;;;2.03;85.88;151887.25;5090029;28;20452;-84
2021/04/06 09:40:18;;;;;;;5.43;2.23;;;;;;;1.99;84.67;151878.25;5089824;28;20438;-84
2021/04/06 09:42:53;;;;;;;3.50;2.03;;;;;;;2.07;85.76;151898.81;5082860;28;20456;-84
2021/04/06 09:45:29;;;;;;;2.30;1.90;;;;;;;1.95;84.90;151866.69;5093603;28;20488;-83
2021/04/06 09:48:06;;;;;;;3.83;2.23;;;;;;;2.04;85.20;151891.09;5095252;28;20205;-84
2021/04/06 09:50:55;;;;;;;5.00;3.00;;;;;;;2.08;84.63;151900.13;5078471;28;20804;-84
2021/04/06 09:53:31;;;;;;;3.50;1.87;;;;;;;2.03;85.00;151888.56;5085870;28;20450;-84
2021/04/06 09:56:06;;;;;;;5.43;2.17;;;;;;;1.94;84.19;151865.41;5058427;28;20437;-84
2021/04/06 09:58:41;;;;;;;4.80;2.10;;;;;;;1.89;83.90;151851.25;5076041;28;20521;-84
2021/04/06 10:01:18;;;;;;;5.23;2.40;;;;;;;2.04;85.31;151891.09;5074716;28;20533;-83
2021/04/06 10:03:55;;;;;;;3.60;2.17;;;;;;;2.27;83.49;151948.97;5095640;28;20465;-84
2021/04/06 10:06:37;;;;;;;5.13;2.60;;;;;;;2.37;85.49;151976.00;5063150;28;20433;-84
2021/04/06 10:09:24;;;;;;;2.20;1.93;;;;;;;2.44;83.29;151993.97;5076290;28;21197;-83
2021/04/06 10:11:59;;;;;;;4.10;1.97;;;;;;;2.39;83.45;151981.13;5063198;28;20469;-84
2021/04/06 10:14:34;;;;;;;4.57;2.67;;;;;;;2.19;79.88;151929.72;5085601;28;20430;-84
2021/04/06 10:17:11;;;;;;;3.27;2.00;;;;;;;2.26;81.51;151947.69;5091060;28;20445;-85
2021/04/06 10:19:56;;;;;;;3.30;2.30;;;;;;;2.26;84.92;151947.69;5088838;28;20445;-83
2021/04/06 10:22:40;;;;;;;4.23;2.07;;;;;;;2.24;81.87;151942.56;5087951;28;20948;-83
2021/04/06 10:25:17;;;;;;;2.60;1.70;;;;;;;2.31;82.38;151960.53;5075387;28;20465;-83
2021/04/06 10:27:53;;;;;;;4.90;2.50;;;;;;;2.28;82.16;151951.53;5075693;28;20441;-84
2021/04/06 10:30:35;;;;;;;2.40;1.93;;;;;;;2.27;82.62;151950.28;5062543;28;20544;-85
2021/04/06 10:33:12;;;;;;;3.83;1.90;;;;;;;2.32;82.09;151963.13;5062716;28;20814;-84
2021/04/06 10:35:50;;;;;;;3.80;2.17;;;;;;;2.39;80.23;151979.81;5076842;28;21190;-83
2021/04/06 10:38:28;;;;;;;2.33;2.00;;;;;;;2.36;79.62;151973.41;5082688;28;20458;-83
2021/04/06 10:41:06;;;;;;;3.87;2.00;;;;;;;2.45;83.04;151996.56;5087785;28;20461;-83
2021/04/06 10:43:45;;;;;;;3.50;2.40;;;;;;;2.45;79.51;151996.56;5077015;28;20477;-83
2021/04/06 10:46:22;;;;;;;4.00;2.20;;;;;;;2.59;80.70;152030.00;5061920;28;20784;-83
2021/04/06 10:49:04;;;;;;;3.90;2.17;;;;;;;2.62;78.99;152037.72;5096888;28;20537;-83
2021/04/06 10:51:48;;;;;;;3.40;2.47;;;;;;;2.79;78.64;152081.44;5101247;28;20506;-82
2021/04/06 10:54:25;;;;;;;3.70;2.50;;;;;;;2.90;79.49;152111.03;5074165;28;20453;-82
2021/04/06 10:57:00;;;;;;;3.70;2.33;;;;;;;3.06;78.93;152152.22;5077452;28;20442;-82
2021/04/06 10:59:37;;;;;;;3.77;2.17;;;;;;;3.10;79.21;152159.94;5074212;28;20553;-83
2021/04/06 11:02:19;;;;;;;4.10;2.23;;;;;;;3.19;77.44;152184.38;5059173;28;20451;-83
2021/04/06 11:04:54;;;;;;;3.53;2.63;;;;;;;3.12;76.82;152165.06;5055778;28;20869;-82
2021/04/06 11:07:29;;;;;;;5.57;2.47;;;;;;;2.97;76.54;152127.75;5069584;28;20654;-84
2021/04/06 11:10:07;;;;;;;3.10;2.37;;;;;;;2.83;76.25;152091.75;5075123;28;20450;-86
2021/04/06 11:12:43;;;;;;;5.00;2.27;;;;;;;2.84;75.24;152094.28;5091811;28;20928;-85
2021/04/06 11:15:18;;;;;;;4.33;2.87;;;;;;;2.91;76.62;152112.34;5091147;28;20540;-85
2021/04/06 11:17:53;;;;;;;6.53;2.47;;;;;;;2.88;75.34;152104.59;5070056;28;20451;-86
2021/04/06 11:20:28;;;;;;;5.50;1.60;;;;;;;2.87;76.78;152102.00;5068192;28;20439;-85
2021/04/06 11:23:04;;;;;;;5.17;2.67;;;;;;;2.97;75.25;152127.75;5073505;28;20801;-84
2021/04/06 11:25:43;;;;;;;3.97;2.30;;;;;;;3.18;76.51;152180.53;5071716;28;20466;-86
2021/04/06 11:28:18;;;;;;;3.37;2.40;;;;;;;3.20;74.76;152186.97;5070117;28;20547;-85
2021/04/06 11:30:53;;;;;;;2.70;2.23;;;;;;;3.11;74.10;152163.78;5065442;28;20450;-83
2021/04/06 11:33:29;;;;;;;3.60;2.50;;;;;;;3.12;75.59;152166.38;5086179;28;20534;-84
2021/04/06 11:36:04;;;;;;;4.13;2.30;;;;;;;3.16;72.33;152175.34;5062307;28;20429;-85
2021/04/06 11:38:40;;;;;;;3.80;2.37;;;;;;;3.12;74.65;152166.38;5059961;28;20940;-84
2021/04/06 11:41:17;;;;;;;3.30;2.33;;;;;;;3.11;75.00;152163.78;5082917;28;20818;-84
2021/04/06 11:43:52;;;;;;;2.80;2.23;;;;;;;2.99;72.72;152132.91;5064022;28;20814;-85
2021/04/06 11:46:27;;;;;;;8.20;2.47;;;;;;;3.03;72.87;152144.47;5052275;28;20435;-85
2021/04/06 11:49:04;;;;;;;6.87;2.30;;;;;;;2.93;73.14;152117.47;5053639;28;20466;-84
2021/04/06 11:51:40;;;;;;;2.73;1.90;;;;;;;3.06;74.91;152150.91;5060561;28;20843;-83
2021/04/06 11:54:17;;;;;;;8.43;2.50;;;;;;;3.19;71.12;152184.38;5086367;28;20458;-83
2021/04/06 11:56:53;;;;;;;2.40;1.93;;;;;;;3.23;72.82;152193.41;5058168;28;20449;-85
2021/04/06 11:59:29;;;;;;;5.13;2.30;;;;;;;3.25;74.09;152199.81;5069959;28;20476;-84
2021/04/06 12:02:05;;;;;;;5.70;3.07;;;;;;;3.29;71.78;152210.09;5090834;28;20442;-84
2021/04/06 12:04:40;;;;;;;4.60;2.20;;;;;;;3.32;72.04;152217.81;5069967;28;20473;-84
2021/04/06 12:07:15;;;;;;;4.40;2.03;;;;;;;3.43;70.53;152246.16;5086156;28;20455;-85
2021/04/06 12:09:51;;;;;;;4.13;2.27;;;;;;;3.40;72.08;152238.41;5069542;28;20482;-85
2021/04/06 12:12:27;;;;;;;2.13;1.70;;;;;;;3.34;72.92;152222.97;5075718;28;20450;-84
2021/04/06 12:15:03;;;;;;;3.80;2.03;;;;;;;3.38;70.65;152232.00;5053498;28;20416;-84
2021/04/06 12:17:38;;;;;;;3.60;1.87;;;;;;;3.42;71.67;152243.56;5062811;28;20805;-84